sensor_id;sensor_type;location;lat;lon;timestamp;temperature;humidity
14908;DHT22;7545;52.092;7.006;2024-03-29T00:00:40;9.80;99.90
14908;DHT22;7545;52.092;7.006;2024-03-29T00:03:06;9.70;99.90
14908;DHT22;7545;52.092;7.006;2024-03-29T00:05:33;9.80;99.90
14908;DHT22;7545;52.092;7.006;2024-03-29T00:07:59;9.80;99.90
14908;DHT22;7545;52.092;7.006;2024-03-29T00:10:24;9.70;99.90
14908;DHT22;7545;52.092;7.006;2024-03-29T00:12:50;9.70;99.90
14908;DHT22;7545;52.092;7.006;2024-03-29T00:15:15;9.70;99.90
14908;DHT22;7545;52.092;7.006;2024-03-29T00:17:41;9.70;99.90
14908;DHT22;7545;52.092;7.006;2024-03-29T00:20:07;9.70;99.90
14908;DHT22;7545;52.092;7.006;2024-03-29T00:22:33;9.70;99.90
14908;DHT22;7545;52.092;7.006;2024-03-29T00:24:59;9.70;99.90
14908;DHT22;7545;52.092;7.006;2024-03-29T00:27:24;9.60;99.90
14908;DHT22;7545;52.092;7.006;2024-03-29T00:29:52;9.70;99.90
14908;DHT22;7545;52.092;7.006;2024-03-29T00:32:20;9.60;99.90
14908;DHT22;7545;52.092;7.006;2024-03-29T00:34:48;9.60;99.90
14908;DHT22;7545;52.092;7.006;2024-03-29T00:37:14;9.60;99.90
14908;DHT22;7545;52.092;7.006;2024-03-29T00:39:40;9.60;99.90
14908;DHT22;7545;52.092;7.006;2024-03-29T00:42:06;9.60;99.90
14908;DHT22;7545;52.092;7.006;2024-03-29T00:44:34;9.60;99.90
14908;DHT22;7545;52.092;7.006;2024-03-29T00:47:01;9.60;99.90
14908;DHT22;7545;52.092;7.006;2024-03-29T00:49:27;9.50;99.90
14908;DHT22;7545;52.092;7.006;2024-03-29T00:51:52;9.50;99.90
14908;DHT22;7545;52.092;7.006;2024-03-29T00:54:18;9.50;99.90
14908;DHT22;7545;52.092;7.006;2024-03-29T00:56:44;9.60;99.90
14908;DHT22;7545;52.092;7.006;2024-03-29T00:59:10;9.50;99.90
14908;DHT22;7545;52.092;7.006;2024-03-29T01:01:35;9.50;99.90
14908;DHT22;7545;52.092;7.006;2024-03-29T01:04:01;9.50;99.90
14908;DHT22;7545;52.092;7.006;2024-03-29T01:06:26;9.50;99.90
14908;DHT22;7545;52.092;7.006;2024-03-29T01:08:52;9.60;99.90
14908;DHT22;7545;52.092;7.006;2024-03-29T01:11:17;9.50;99.90
14908;DHT22;7545;52.092;7.006;2024-03-29T01:13:43;9.50;99.90
14908;DHT22;7545;52.092;7.006;2024-03-29T01:16:08;9.50;99.90
14908;DHT22;7545;52.092;7.006;2024-03-29T01:18:34;9.50;99.90
14908;DHT22;7545;52.092;7.006;2024-03-29T01:20:59;9.50;99.90
14908;DHT22;7545;52.092;7.006;2024-03-29T01:23:25;9.50;99.90
14908;DHT22;7545;52.092;7.006;2024-03-29T01:25:51;9.50;99.90
14908;DHT22;7545;52.092;7.006;2024-03-29T01:28:16;9.50;99.90
14908;DHT22;7545;52.092;7.006;2024-03-29T01:30:42;9.40;99.90
14908;DHT22;7545;52.092;7.006;2024-03-29T01:33:07;9.40;99.90
14908;DHT22;7545;52.092;7.006;2024-03-29T01:35:33;9.50;99.90
14908;DHT22;7545;52.092;7.006;2024-03-29T01:37:58;9.40;99.90
14908;DHT22;7545;52.092;7.006;2024-03-29T01:40:24;9.40;99.90
14908;DHT22;7545;52.092;7.006;2024-03-29T01:42:53;9.40;99.90
14908;DHT22;7545;52.092;7.006;2024-03-29T01:45:19;9.40;99.90
14908;DHT22;7545;52.092;7.006;2024-03-29T01:47:45;9.40;99.90
14908;DHT22;7545;52.092;7.006;2024-03-29T01:50:11;9.40;99.90
14908;DHT22;7545;52.092;7.006;2024-03-29T01:52:37;9.40;99.90
14908;DHT22;7545;52.092;7.006;2024-03-29T01:55:02;9.40;99.90
14908;DHT22;7545;52.092;7.006;2024-03-29T01:57:28;9.40;99.90
14908;DHT22;7545;52.092;7.006;2024-03-29T01:59:54;9.40;99.90
14908;DHT22;7545;52.092;7.006;2024-03-29T02:02:20;9.40;99.90
14908;DHT22;7545;52.092;7.006;2024-03-29T02:04:47;9.40;99.90
14908;DHT22;7545;52.092;7.006;2024-03-29T02:07:13;9.40;99.90
14908;DHT22;7545;52.092;7.006;2024-03-29T02:09:38;9.30;99.90
14908;DHT22;7545;52.092;7.006;2024-03-29T02:12:04;9.40;99.90
14908;DHT22;7545;52.092;7.006;2024-03-29T02:14:30;9.30;99.90
14908;DHT22;7545;52.092;7.006;2024-03-29T02:16:56;9.30;99.90
14908;DHT22;7545;52.092;7.006;2024-03-29T02:19:21;9.30;99.90
14908;DHT22;7545;52.092;7.006;2024-03-29T02:21:48;9.30;99.90
14908;DHT22;7545;52.092;7.006;2024-03-29T02:24:15;9.30;99.90
14908;DHT22;7545;52.092;7.006;2024-03-29T02:26:44;9.30;99.90
14908;DHT22;7545;52.092;7.006;2024-03-29T02:29:10;9.30;99.90
14908;DHT22;7545;52.092;7.006;2024-03-29T02:31:36;9.30;99.90
14908;DHT22;7545;52.092;7.006;2024-03-29T02:34:01;9.30;99.90
14908;DHT22;7545;52.092;7.006;2024-03-29T02:36:27;9.30;99.90
14908;DHT22;7545;52.092;7.006;2024-03-29T02:38:53;9.30;99.90
14908;DHT22;7545;52.092;7.006;2024-03-29T02:41:18;9.30;99.90
14908;DHT22;7545;52.092;7.006;2024-03-29T02:43:44;9.30;99.90
14908;DHT22;7545;52.092;7.006;2024-03-29T02:46:09;9.30;99.90
14908;DHT22;7545;52.092;7.006;2024-03-29T02:48:35;9.30;99.90
14908;DHT22;7545;52.092;7.006;2024-03-29T02:51:01;9.30;99.90
14908;DHT22;7545;52.092;7.006;2024-03-29T02:53:26;9.30;99.90
14908;DHT22;7545;52.092;7.006;2024-03-29T02:55:52;9.30;99.90
14908;DHT22;7545;52.092;7.006;2024-03-29T02:58:18;9.40;99.90
14908;DHT22;7545;52.092;7.006;2024-03-29T03:00:43;9.40;99.90
14908;DHT22;7545;52.092;7.006;2024-03-29T03:03:09;9.30;99.90
14908;DHT22;7545;52.092;7.006;2024-03-29T03:05:34;9.40;99.90
14908;DHT22;7545;52.092;7.006;2024-03-29T03:08:00;9.40;99.90
14908;DHT22;7545;52.092;7.006;2024-03-29T03:10:47;9.40;99.90
14908;DHT22;7545;52.092;7.006;2024-03-29T03:13:22;9.40;99.90
14908;DHT22;7545;52.092;7.006;2024-03-29T03:15:48;9.40;99.90
14908;DHT22;7545;52.092;7.006;2024-03-29T03:18:13;9.40;99.90
14908;DHT22;7545;52.092;7.006;2024-03-29T03:20:39;9.50;99.90
14908;DHT22;7545;52.092;7.006;2024-03-29T03:23:05;9.50;99.90
14908;DHT22;7545;52.092;7.006;2024-03-29T03:25:30;9.50;99.90
14908;DHT22;7545;52.092;7.006;2024-03-29T03:27:56;9.50;99.90
14908;DHT22;7545;52.092;7.006;2024-03-29T03:30:21;9.50;99.90
14908;DHT22;7545;52.092;7.006;2024-03-29T03:32:47;9.50;99.90
14908;DHT22;7545;52.092;7.006;2024-03-29T03:35:13;9.60;99.90
14908;DHT22;7545;52.092;7.006;2024-03-29T03:37:39;9.50;99.90
14908;DHT22;7545;52.092;7.006;2024-03-29T03:40:05;9.60;99.90
14908;DHT22;7545;52.092;7.006;2024-03-29T03:42:32;9.60;99.90
14908;DHT22;7545;52.092;7.006;2024-03-29T03:44:57;9.60;99.90
14908;DHT22;7545;52.092;7.006;2024-03-29T03:47:23;9.60;99.90
14908;DHT22;7545;52.092;7.006;2024-03-29T03:49:48;9.60;99.90
14908;DHT22;7545;52.092;7.006;2024-03-29T03:52:14;9.60;99.90
14908;DHT22;7545;52.092;7.006;2024-03-29T03:54:40;9.60;99.90
14908;DHT22;7545;52.092;7.006;2024-03-29T03:57:05;9.70;99.90
14908;DHT22;7545;52.092;7.006;2024-03-29T03:59:31;9.70;99.90
14908;DHT22;7545;52.092;7.006;2024-03-29T04:01:56;9.70;99.90
14908;DHT22;7545;52.092;7.006;2024-03-29T04:04:22;9.70;99.90
14908;DHT22;7545;52.092;7.006;2024-03-29T04:06:47;9.70;99.90
14908;DHT22;7545;52.092;7.006;2024-03-29T04:09:16;9.80;99.90
14908;DHT22;7545;52.092;7.006;2024-03-29T04:11:42;9.80;99.90
14908;DHT22;7545;52.092;7.006;2024-03-29T04:14:08;9.80;99.90
14908;DHT22;7545;52.092;7.006;2024-03-29T04:16:34;9.80;99.90
14908;DHT22;7545;52.092;7.006;2024-03-29T04:18:59;9.90;99.90
14908;DHT22;7545;52.092;7.006;2024-03-29T04:21:25;9.80;99.90
14908;DHT22;7545;52.092;7.006;2024-03-29T04:23:50;9.80;99.90
14908;DHT22;7545;52.092;7.006;2024-03-29T04:26:16;9.80;99.90
14908;DHT22;7545;52.092;7.006;2024-03-29T04:28:41;9.90;99.90
14908;DHT22;7545;52.092;7.006;2024-03-29T04:31:07;9.80;99.90
14908;DHT22;7545;52.092;7.006;2024-03-29T04:33:32;9.90;99.90
14908;DHT22;7545;52.092;7.006;2024-03-29T04:36:03;9.90;99.90
14908;DHT22;7545;52.092;7.006;2024-03-29T04:38:30;9.80;99.90
14908;DHT22;7545;52.092;7.006;2024-03-29T04:40:57;9.80;99.90
14908;DHT22;7545;52.092;7.006;2024-03-29T04:43:27;9.80;99.90
14908;DHT22;7545;52.092;7.006;2024-03-29T04:46:07;9.70;99.90
14908;DHT22;7545;52.092;7.006;2024-03-29T04:48:35;9.70;99.90
14908;DHT22;7545;52.092;7.006;2024-03-29T04:51:01;9.70;99.90
14908;DHT22;7545;52.092;7.006;2024-03-29T04:53:26;9.70;99.90
14908;DHT22;7545;52.092;7.006;2024-03-29T04:55:58;9.60;99.90
14908;DHT22;7545;52.092;7.006;2024-03-29T04:58:25;9.60;99.90
14908;DHT22;7545;52.092;7.006;2024-03-29T05:00:51;9.60;99.90
14908;DHT22;7545;52.092;7.006;2024-03-29T05:03:18;9.60;99.90
14908;DHT22;7545;52.092;7.006;2024-03-29T05:05:44;9.50;99.90
14908;DHT22;7545;52.092;7.006;2024-03-29T05:08:10;9.50;99.90
14908;DHT22;7545;52.092;7.006;2024-03-29T05:10:35;9.50;99.90
14908;DHT22;7545;52.092;7.006;2024-03-29T05:13:01;9.50;99.90
14908;DHT22;7545;52.092;7.006;2024-03-29T05:15:27;9.50;99.90
14908;DHT22;7545;52.092;7.006;2024-03-29T05:17:53;9.40;99.90
14908;DHT22;7545;52.092;7.006;2024-03-29T05:20:19;9.40;99.90
14908;DHT22;7545;52.092;7.006;2024-03-29T05:22:44;9.40;99.90
14908;DHT22;7545;52.092;7.006;2024-03-29T05:25:10;9.40;99.90
14908;DHT22;7545;52.092;7.006;2024-03-29T05:27:35;9.40;99.90
14908;DHT22;7545;52.092;7.006;2024-03-29T05:30:02;9.30;99.90
14908;DHT22;7545;52.092;7.006;2024-03-29T05:32:29;9.30;99.90
14908;DHT22;7545;52.092;7.006;2024-03-29T05:34:54;9.30;99.90
14908;DHT22;7545;52.092;7.006;2024-03-29T05:37:20;9.30;99.90
14908;DHT22;7545;52.092;7.006;2024-03-29T05:39:47;9.40;99.90
14908;DHT22;7545;52.092;7.006;2024-03-29T05:42:13;9.40;99.90
14908;DHT22;7545;52.092;7.006;2024-03-29T05:44:38;9.30;99.90
14908;DHT22;7545;52.092;7.006;2024-03-29T05:47:04;9.30;99.90
14908;DHT22;7545;52.092;7.006;2024-03-29T05:49:32;9.30;99.90
14908;DHT22;7545;52.092;7.006;2024-03-29T05:51:58;9.30;99.90
14908;DHT22;7545;52.092;7.006;2024-03-29T05:54:24;9.30;99.90
14908;DHT22;7545;52.092;7.006;2024-03-29T05:56:50;9.20;99.90
14908;DHT22;7545;52.092;7.006;2024-03-29T05:59:15;9.20;99.90
14908;DHT22;7545;52.092;7.006;2024-03-29T06:01:41;9.20;99.90
14908;DHT22;7545;52.092;7.006;2024-03-29T06:04:07;9.20;99.90
14908;DHT22;7545;52.092;7.006;2024-03-29T06:06:41;9.20;99.90
14908;DHT22;7545;52.092;7.006;2024-03-29T06:09:06;9.20;99.90
14908;DHT22;7545;52.092;7.006;2024-03-29T06:11:32;9.20;99.90
14908;DHT22;7545;52.092;7.006;2024-03-29T06:13:57;9.20;99.90
14908;DHT22;7545;52.092;7.006;2024-03-29T06:16:25;9.20;99.90
14908;DHT22;7545;52.092;7.006;2024-03-29T06:19:10;9.20;99.90
14908;DHT22;7545;52.092;7.006;2024-03-29T06:21:35;9.20;99.90
14908;DHT22;7545;52.092;7.006;2024-03-29T06:24:09;9.20;99.90
14908;DHT22;7545;52.092;7.006;2024-03-29T06:26:37;9.20;99.90
14908;DHT22;7545;52.092;7.006;2024-03-29T06:29:03;9.20;99.90
14908;DHT22;7545;52.092;7.006;2024-03-29T06:31:29;9.20;99.90
14908;DHT22;7545;52.092;7.006;2024-03-29T06:33:55;9.20;99.90
14908;DHT22;7545;52.092;7.006;2024-03-29T06:36:21;9.20;99.90
14908;DHT22;7545;52.092;7.006;2024-03-29T06:38:46;9.20;99.90
14908;DHT22;7545;52.092;7.006;2024-03-29T06:41:12;9.20;99.90
14908;DHT22;7545;52.092;7.006;2024-03-29T06:43:40;9.20;99.90
14908;DHT22;7545;52.092;7.006;2024-03-29T06:46:06;9.30;99.90
14908;DHT22;7545;52.092;7.006;2024-03-29T06:48:31;9.30;99.90
14908;DHT22;7545;52.092;7.006;2024-03-29T06:50:57;9.20;99.90
14908;DHT22;7545;52.092;7.006;2024-03-29T06:53:26;9.20;99.90
14908;DHT22;7545;52.092;7.006;2024-03-29T06:55:54;9.20;99.90
14908;DHT22;7545;52.092;7.006;2024-03-29T06:58:19;9.20;99.90
14908;DHT22;7545;52.092;7.006;2024-03-29T07:00:46;9.30;99.90
14908;DHT22;7545;52.092;7.006;2024-03-29T07:03:14;9.30;99.90
14908;DHT22;7545;52.092;7.006;2024-03-29T07:05:40;9.30;99.90
14908;DHT22;7545;52.092;7.006;2024-03-29T07:08:06;9.30;99.90
14908;DHT22;7545;52.092;7.006;2024-03-29T07:10:32;9.30;99.90
14908;DHT22;7545;52.092;7.006;2024-03-29T07:12:57;9.30;99.90
14908;DHT22;7545;52.092;7.006;2024-03-29T07:15:23;9.40;99.90
14908;DHT22;7545;52.092;7.006;2024-03-29T07:17:49;9.40;99.90
14908;DHT22;7545;52.092;7.006;2024-03-29T07:20:16;9.40;99.90
14908;DHT22;7545;52.092;7.006;2024-03-29T07:22:42;9.40;99.90
14908;DHT22;7545;52.092;7.006;2024-03-29T07:25:08;9.50;99.90
14908;DHT22;7545;52.092;7.006;2024-03-29T07:27:34;9.50;99.90
14908;DHT22;7545;52.092;7.006;2024-03-29T07:30:02;9.60;99.90
14908;DHT22;7545;52.092;7.006;2024-03-29T07:32:30;9.60;99.90
14908;DHT22;7545;52.092;7.006;2024-03-29T07:34:55;9.70;99.90
14908;DHT22;7545;52.092;7.006;2024-03-29T07:37:23;9.70;99.90
14908;DHT22;7545;52.092;7.006;2024-03-29T07:39:49;9.70;99.90
14908;DHT22;7545;52.092;7.006;2024-03-29T07:42:15;9.80;99.90
14908;DHT22;7545;52.092;7.006;2024-03-29T07:44:41;9.90;99.90
14908;DHT22;7545;52.092;7.006;2024-03-29T07:47:07;9.80;99.90
14908;DHT22;7545;52.092;7.006;2024-03-29T07:49:32;9.80;99.90
14908;DHT22;7545;52.092;7.006;2024-03-29T07:51:58;9.80;99.90
14908;DHT22;7545;52.092;7.006;2024-03-29T07:54:25;9.80;99.90
14908;DHT22;7545;52.092;7.006;2024-03-29T07:56:56;9.90;99.90
14908;DHT22;7545;52.092;7.006;2024-03-29T07:59:22;9.90;99.90
14908;DHT22;7545;52.092;7.006;2024-03-29T08:01:47;10.00;99.90
14908;DHT22;7545;52.092;7.006;2024-03-29T08:04:13;10.10;99.90
14908;DHT22;7545;52.092;7.006;2024-03-29T08:06:39;10.10;99.90
14908;DHT22;7545;52.092;7.006;2024-03-29T08:09:04;10.20;99.90
14908;DHT22;7545;52.092;7.006;2024-03-29T08:11:30;10.30;99.90
14908;DHT22;7545;52.092;7.006;2024-03-29T08:13:55;10.30;99.90
14908;DHT22;7545;52.092;7.006;2024-03-29T08:16:21;10.40;99.90
14908;DHT22;7545;52.092;7.006;2024-03-29T08:18:47;10.50;99.90
14908;DHT22;7545;52.092;7.006;2024-03-29T08:21:15;10.50;99.90
14908;DHT22;7545;52.092;7.006;2024-03-29T08:23:41;10.60;99.90
14908;DHT22;7545;52.092;7.006;2024-03-29T08:26:10;10.70;99.90
14908;DHT22;7545;52.092;7.006;2024-03-29T08:28:35;10.70;99.90
14908;DHT22;7545;52.092;7.006;2024-03-29T08:31:05;10.70;99.90
14908;DHT22;7545;52.092;7.006;2024-03-29T08:33:32;10.70;99.90
14908;DHT22;7545;52.092;7.006;2024-03-29T08:35:58;10.70;99.90
14908;DHT22;7545;52.092;7.006;2024-03-29T08:38:24;10.80;99.90
14908;DHT22;7545;52.092;7.006;2024-03-29T08:40:49;10.80;99.90
14908;DHT22;7545;52.092;7.006;2024-03-29T08:43:16;10.80;99.90
14908;DHT22;7545;52.092;7.006;2024-03-29T08:45:44;10.80;99.90
14908;DHT22;7545;52.092;7.006;2024-03-29T08:48:09;10.90;99.90
14908;DHT22;7545;52.092;7.006;2024-03-29T08:50:36;10.90;99.90
14908;DHT22;7545;52.092;7.006;2024-03-29T08:53:02;10.90;99.90
14908;DHT22;7545;52.092;7.006;2024-03-29T08:55:29;10.90;99.90
14908;DHT22;7545;52.092;7.006;2024-03-29T08:57:55;11.00;99.90
14908;DHT22;7545;52.092;7.006;2024-03-29T09:00:20;11.00;99.90
14908;DHT22;7545;52.092;7.006;2024-03-29T09:02:46;11.00;99.90
14908;DHT22;7545;52.092;7.006;2024-03-29T09:05:12;11.00;99.90
14908;DHT22;7545;52.092;7.006;2024-03-29T09:07:37;11.10;99.90
14908;DHT22;7545;52.092;7.006;2024-03-29T09:10:04;11.10;99.90
14908;DHT22;7545;52.092;7.006;2024-03-29T09:12:30;11.10;99.90
14908;DHT22;7545;52.092;7.006;2024-03-29T09:14:55;11.10;99.90
14908;DHT22;7545;52.092;7.006;2024-03-29T09:17:21;11.10;99.90
14908;DHT22;7545;52.092;7.006;2024-03-29T09:19:49;11.20;99.90
14908;DHT22;7545;52.092;7.006;2024-03-29T09:22:16;11.20;99.90
14908;DHT22;7545;52.092;7.006;2024-03-29T09:24:41;11.20;99.90
14908;DHT22;7545;52.092;7.006;2024-03-29T09:27:07;11.30;99.90
14908;DHT22;7545;52.092;7.006;2024-03-29T09:29:32;11.40;99.90
14908;DHT22;7545;52.092;7.006;2024-03-29T09:31:58;11.40;99.90
14908;DHT22;7545;52.092;7.006;2024-03-29T09:34:24;11.40;99.90
14908;DHT22;7545;52.092;7.006;2024-03-29T09:36:49;11.40;99.90
14908;DHT22;7545;52.092;7.006;2024-03-29T09:39:15;11.50;99.90
14908;DHT22;7545;52.092;7.006;2024-03-29T09:41:46;11.50;99.90
14908;DHT22;7545;52.092;7.006;2024-03-29T09:44:12;11.50;99.90
14908;DHT22;7545;52.092;7.006;2024-03-29T09:46:39;11.60;99.90
14908;DHT22;7545;52.092;7.006;2024-03-29T09:49:06;11.60;99.90
14908;DHT22;7545;52.092;7.006;2024-03-29T09:51:32;11.70;99.90
14908;DHT22;7545;52.092;7.006;2024-03-29T09:53:59;11.70;99.90
14908;DHT22;7545;52.092;7.006;2024-03-29T09:56:26;11.70;99.90
14908;DHT22;7545;52.092;7.006;2024-03-29T09:58:52;11.70;99.90
14908;DHT22;7545;52.092;7.006;2024-03-29T10:01:18;11.80;99.90
14908;DHT22;7545;52.092;7.006;2024-03-29T10:03:48;11.80;99.90
14908;DHT22;7545;52.092;7.006;2024-03-29T10:06:14;11.70;99.90
14908;DHT22;7545;52.092;7.006;2024-03-29T10:08:40;11.80;99.90
14908;DHT22;7545;52.092;7.006;2024-03-29T10:11:06;11.80;99.90
14908;DHT22;7545;52.092;7.006;2024-03-29T10:13:32;11.80;99.90
14908;DHT22;7545;52.092;7.006;2024-03-29T10:16:00;11.80;99.90
14908;DHT22;7545;52.092;7.006;2024-03-29T10:18:28;11.80;99.90
14908;DHT22;7545;52.092;7.006;2024-03-29T10:21:06;11.80;99.90
14908;DHT22;7545;52.092;7.006;2024-03-29T10:23:33;11.80;99.90
14908;DHT22;7545;52.092;7.006;2024-03-29T10:26:02;11.80;99.90
14908;DHT22;7545;52.092;7.006;2024-03-29T10:28:32;11.90;99.90
14908;DHT22;7545;52.092;7.006;2024-03-29T10:31:03;11.90;99.90
14908;DHT22;7545;52.092;7.006;2024-03-29T10:33:29;11.90;99.90
14908;DHT22;7545;52.092;7.006;2024-03-29T10:35:56;11.90;99.90
14908;DHT22;7545;52.092;7.006;2024-03-29T10:38:24;11.90;99.90
14908;DHT22;7545;52.092;7.006;2024-03-29T10:40:52;12.00;99.90
14908;DHT22;7545;52.092;7.006;2024-03-29T10:43:19;12.00;99.90
14908;DHT22;7545;52.092;7.006;2024-03-29T10:45:48;12.10;99.90
14908;DHT22;7545;52.092;7.006;2024-03-29T10:48:16;12.10;99.90
14908;DHT22;7545;52.092;7.006;2024-03-29T10:50:43;12.20;99.90
14908;DHT22;7545;52.092;7.006;2024-03-29T10:53:09;12.30;99.90
14908;DHT22;7545;52.092;7.006;2024-03-29T10:55:37;12.40;99.90
14908;DHT22;7545;52.092;7.006;2024-03-29T10:58:04;12.50;99.90
14908;DHT22;7545;52.092;7.006;2024-03-29T11:00:33;12.50;99.90
14908;DHT22;7545;52.092;7.006;2024-03-29T11:03:12;12.60;99.90
14908;DHT22;7545;52.092;7.006;2024-03-29T11:05:41;12.70;99.90
14908;DHT22;7545;52.092;7.006;2024-03-29T11:08:07;12.80;99.90
14908;DHT22;7545;52.092;7.006;2024-03-29T11:10:41;12.80;99.90
14908;DHT22;7545;52.092;7.006;2024-03-29T11:15:52;12.90;99.90
14908;DHT22;7545;52.092;7.006;2024-03-29T11:18:19;13.00;99.90
14908;DHT22;7545;52.092;7.006;2024-03-29T11:20:46;13.00;99.90
14908;DHT22;7545;52.092;7.006;2024-03-29T11:23:17;13.00;99.90
14908;DHT22;7545;52.092;7.006;2024-03-29T11:25:45;13.10;99.90
14908;DHT22;7545;52.092;7.006;2024-03-29T11:28:13;13.10;99.90
14908;DHT22;7545;52.092;7.006;2024-03-29T11:30:48;13.10;99.90
14908;DHT22;7545;52.092;7.006;2024-03-29T11:33:35;13.20;99.90
14908;DHT22;7545;52.092;7.006;2024-03-29T11:36:21;13.20;99.90
14908;DHT22;7545;52.092;7.006;2024-03-29T11:38:53;13.20;99.90
14908;DHT22;7545;52.092;7.006;2024-03-29T11:41:20;13.30;99.90
14908;DHT22;7545;52.092;7.006;2024-03-29T11:43:49;13.40;99.90
14908;DHT22;7545;52.092;7.006;2024-03-29T11:46:15;13.50;99.90
14908;DHT22;7545;52.092;7.006;2024-03-29T11:48:41;13.60;99.90
14908;DHT22;7545;52.092;7.006;2024-03-29T11:51:13;13.70;99.90
14908;DHT22;7545;52.092;7.006;2024-03-29T11:53:40;13.70;99.90
14908;DHT22;7545;52.092;7.006;2024-03-29T11:56:06;13.80;99.90
14908;DHT22;7545;52.092;7.006;2024-03-29T11:58:33;13.90;99.90
14908;DHT22;7545;52.092;7.006;2024-03-29T12:00:59;13.90;99.90
14908;DHT22;7545;52.092;7.006;2024-03-29T12:03:27;13.90;99.90
14908;DHT22;7545;52.092;7.006;2024-03-29T12:05:54;14.00;99.90
14908;DHT22;7545;52.092;7.006;2024-03-29T12:08:22;14.00;99.90
14908;DHT22;7545;52.092;7.006;2024-03-29T12:10:48;14.00;99.90
14908;DHT22;7545;52.092;7.006;2024-03-29T12:13:16;14.00;99.90
14908;DHT22;7545;52.092;7.006;2024-03-29T12:15:42;14.00;99.90
14908;DHT22;7545;52.092;7.006;2024-03-29T12:18:08;13.90;99.90
14908;DHT22;7545;52.092;7.006;2024-03-29T12:20:38;13.90;99.90
14908;DHT22;7545;52.092;7.006;2024-03-29T12:23:05;13.90;99.90
14908;DHT22;7545;52.092;7.006;2024-03-29T12:25:36;13.90;99.90
14908;DHT22;7545;52.092;7.006;2024-03-29T12:28:02;13.90;99.90
14908;DHT22;7545;52.092;7.006;2024-03-29T12:30:29;14.00;99.90
14908;DHT22;7545;52.092;7.006;2024-03-29T12:35:33;14.00;99.90
14908;DHT22;7545;52.092;7.006;2024-03-29T12:38:00;14.10;99.90
14908;DHT22;7545;52.092;7.006;2024-03-29T12:40:27;14.20;99.90
14908;DHT22;7545;52.092;7.006;2024-03-29T12:42:55;14.30;99.90
14908;DHT22;7545;52.092;7.006;2024-03-29T12:45:22;14.40;99.90
14908;DHT22;7545;52.092;7.006;2024-03-29T12:47:48;14.40;99.90
14908;DHT22;7545;52.092;7.006;2024-03-29T12:50:35;14.50;99.90
14908;DHT22;7545;52.092;7.006;2024-03-29T12:53:05;14.50;99.90
14908;DHT22;7545;52.092;7.006;2024-03-29T12:55:31;14.50;99.90
14908;DHT22;7545;52.092;7.006;2024-03-29T12:58:00;14.50;99.90
14908;DHT22;7545;52.092;7.006;2024-03-29T13:00:27;14.50;99.90
14908;DHT22;7545;52.092;7.006;2024-03-29T13:02:53;14.50;99.90
14908;DHT22;7545;52.092;7.006;2024-03-29T13:05:19;14.50;99.90
14908;DHT22;7545;52.092;7.006;2024-03-29T13:07:45;14.50;99.90
14908;DHT22;7545;52.092;7.006;2024-03-29T13:10:11;14.60;99.90
14908;DHT22;7545;52.092;7.006;2024-03-29T13:12:43;14.60;99.90
14908;DHT22;7545;52.092;7.006;2024-03-29T13:15:21;14.60;99.90
14908;DHT22;7545;52.092;7.006;2024-03-29T13:17:49;14.60;99.90
14908;DHT22;7545;52.092;7.006;2024-03-29T13:20:16;14.70;99.90
14908;DHT22;7545;52.092;7.006;2024-03-29T13:22:42;14.70;99.90
14908;DHT22;7545;52.092;7.006;2024-03-29T13:25:10;14.70;99.90
14908;DHT22;7545;52.092;7.006;2024-03-29T13:27:40;14.80;99.90
14908;DHT22;7545;52.092;7.006;2024-03-29T13:30:07;14.80;99.90
14908;DHT22;7545;52.092;7.006;2024-03-29T13:32:34;14.80;99.90
14908;DHT22;7545;52.092;7.006;2024-03-29T13:35:00;14.90;99.90
14908;DHT22;7545;52.092;7.006;2024-03-29T13:37:27;14.90;99.90
14908;DHT22;7545;52.092;7.006;2024-03-29T13:39:53;14.90;99.90
14908;DHT22;7545;52.092;7.006;2024-03-29T13:42:18;14.90;99.90
14908;DHT22;7545;52.092;7.006;2024-03-29T13:44:44;15.00;99.90
14908;DHT22;7545;52.092;7.006;2024-03-29T13:47:10;15.00;99.90
14908;DHT22;7545;52.092;7.006;2024-03-29T13:49:41;15.10;99.90
14908;DHT22;7545;52.092;7.006;2024-03-29T13:52:08;15.10;99.90
14908;DHT22;7545;52.092;7.006;2024-03-29T13:54:33;15.20;99.90
14908;DHT22;7545;52.092;7.006;2024-03-29T13:57:00;15.20;99.90
14908;DHT22;7545;52.092;7.006;2024-03-29T13:59:26;15.30;99.90
14908;DHT22;7545;52.092;7.006;2024-03-29T14:01:52;15.40;99.90
14908;DHT22;7545;52.092;7.006;2024-03-29T14:04:18;15.50;99.90
14908;DHT22;7545;52.092;7.006;2024-03-29T14:06:43;15.60;99.90
14908;DHT22;7545;52.092;7.006;2024-03-29T14:09:09;15.80;99.90
14908;DHT22;7545;52.092;7.006;2024-03-29T14:11:34;15.90;99.90
14908;DHT22;7545;52.092;7.006;2024-03-29T14:14:00;15.90;99.90
14908;DHT22;7545;52.092;7.006;2024-03-29T14:16:25;15.90;99.90
14908;DHT22;7545;52.092;7.006;2024-03-29T14:18:51;15.90;99.90
14908;DHT22;7545;52.092;7.006;2024-03-29T14:21:17;15.90;99.90
14908;DHT22;7545;52.092;7.006;2024-03-29T14:23:42;16.10;99.90
14908;DHT22;7545;52.092;7.006;2024-03-29T14:26:08;16.20;99.90
14908;DHT22;7545;52.092;7.006;2024-03-29T14:28:33;16.30;99.90
14908;DHT22;7545;52.092;7.006;2024-03-29T14:30:59;16.30;99.90
14908;DHT22;7545;52.092;7.006;2024-03-29T14:33:24;16.30;99.90
14908;DHT22;7545;52.092;7.006;2024-03-29T14:35:50;16.30;99.90
14908;DHT22;7545;52.092;7.006;2024-03-29T14:38:16;16.20;99.90
14908;DHT22;7545;52.092;7.006;2024-03-29T14:40:42;16.30;99.90
14908;DHT22;7545;52.092;7.006;2024-03-29T14:43:07;16.20;99.90
14908;DHT22;7545;52.092;7.006;2024-03-29T14:45:33;16.20;99.90
14908;DHT22;7545;52.092;7.006;2024-03-29T14:47:59;16.20;99.90
14908;DHT22;7545;52.092;7.006;2024-03-29T14:50:25;16.10;99.90
14908;DHT22;7545;52.092;7.006;2024-03-29T14:52:51;16.10;99.90
14908;DHT22;7545;52.092;7.006;2024-03-29T14:55:16;16.10;99.90
14908;DHT22;7545;52.092;7.006;2024-03-29T14:57:42;16.10;99.90
14908;DHT22;7545;52.092;7.006;2024-03-29T15:00:08;16.00;99.90
14908;DHT22;7545;52.092;7.006;2024-03-29T15:02:34;16.00;99.90
14908;DHT22;7545;52.092;7.006;2024-03-29T15:05:00;16.00;99.90
14908;DHT22;7545;52.092;7.006;2024-03-29T15:07:26;15.90;99.90
14908;DHT22;7545;52.092;7.006;2024-03-29T15:09:51;15.90;99.90
14908;DHT22;7545;52.092;7.006;2024-03-29T15:12:17;15.90;99.90
14908;DHT22;7545;52.092;7.006;2024-03-29T15:14:43;15.90;99.90
14908;DHT22;7545;52.092;7.006;2024-03-29T15:17:08;15.90;99.90
14908;DHT22;7545;52.092;7.006;2024-03-29T15:19:34;15.90;99.90
14908;DHT22;7545;52.092;7.006;2024-03-29T15:22:00;15.80;99.90
14908;DHT22;7545;52.092;7.006;2024-03-29T15:24:25;15.80;99.90
14908;DHT22;7545;52.092;7.006;2024-03-29T15:26:51;15.70;99.90
14908;DHT22;7545;52.092;7.006;2024-03-29T15:29:26;15.70;99.90
14908;DHT22;7545;52.092;7.006;2024-03-29T15:31:51;15.60;99.90
14908;DHT22;7545;52.092;7.006;2024-03-29T15:34:17;15.60;99.90
14908;DHT22;7545;52.092;7.006;2024-03-29T15:36:42;15.60;99.90
14908;DHT22;7545;52.092;7.006;2024-03-29T15:39:08;15.50;99.90
14908;DHT22;7545;52.092;7.006;2024-03-29T15:41:34;15.40;99.90
14908;DHT22;7545;52.092;7.006;2024-03-29T15:44:01;15.40;99.90
14908;DHT22;7545;52.092;7.006;2024-03-29T15:46:27;15.40;99.90
14908;DHT22;7545;52.092;7.006;2024-03-29T15:48:53;15.30;99.90
14908;DHT22;7545;52.092;7.006;2024-03-29T15:51:20;15.30;99.90
14908;DHT22;7545;52.092;7.006;2024-03-29T15:53:46;15.20;99.90
14908;DHT22;7545;52.092;7.006;2024-03-29T15:56:12;15.10;99.90